sensor_id;sensor_type;location;lat;lon;timestamp;P1;durP1;ratioP1;P2;durP2;ratioP2
33830;SDS011;20137;48.834;8.732;2023-02-24T00:01:26;56.47;;;31.00;;
33830;SDS011;20137;48.834;8.732;2023-02-24T00:03:59;57.15;;;29.30;;
33830;SDS011;20137;48.834;8.732;2023-02-24T00:06:25;61.30;;;30.67;;
33830;SDS011;20137;48.834;8.732;2023-02-24T00:11:41;58.88;;;32.08;;
33830;SDS011;20137;48.834;8.732;2023-02-24T00:16:53;66.03;;;33.10;;
33830;SDS011;20137;48.834;8.732;2023-02-24T00:19:20;63.38;;;32.83;;
33830;SDS011;20137;48.834;8.732;2023-02-24T00:21:48;63.70;;;33.35;;
33830;SDS011;20137;48.834;8.732;2023-02-24T00:24:15;64.75;;;34.90;;
33830;SDS011;20137;48.834;8.732;2023-02-24T00:26:41;63.88;;;35.53;;
33830;SDS011;20137;48.834;8.732;2023-02-24T00:29:08;66.25;;;35.15;;
33830;SDS011;20137;48.834;8.732;2023-02-24T00:31:35;67.90;;;36.28;;
33830;SDS011;20137;48.834;8.732;2023-02-24T00:34:03;118.57;;;38.47;;
33830;SDS011;20137;48.834;8.732;2023-02-24T00:36:29;68.03;;;36.17;;
33830;SDS011;20137;48.834;8.732;2023-02-24T00:38:58;72.38;;;37.85;;
33830;SDS011;20137;48.834;8.732;2023-02-24T00:41:39;71.45;;;36.78;;
33830;SDS011;20137;48.834;8.732;2023-02-24T00:44:06;76.80;;;37.55;;
33830;SDS011;20137;48.834;8.732;2023-02-24T00:46:38;107.65;;;38.60;;
33830;SDS011;20137;48.834;8.732;2023-02-24T00:49:08;74.20;;;39.85;;
33830;SDS011;20137;48.834;8.732;2023-02-24T00:51:37;91.95;;;38.75;;
33830;SDS011;20137;48.834;8.732;2023-02-24T00:54:05;86.85;;;41.28;;
33830;SDS011;20137;48.834;8.732;2023-02-24T00:56:31;79.57;;;39.72;;
33830;SDS011;20137;48.834;8.732;2023-02-24T00:58:57;87.82;;;41.35;;
33830;SDS011;20137;48.834;8.732;2023-02-24T01:01:25;90.93;;;41.08;;
33830;SDS011;20137;48.834;8.732;2023-02-24T01:03:55;77.20;;;39.03;;
33830;SDS011;20137;48.834;8.732;2023-02-24T01:06:22;86.05;;;40.42;;
33830;SDS011;20137;48.834;8.732;2023-02-24T01:08:50;93.25;;;40.78;;
33830;SDS011;20137;48.834;8.732;2023-02-24T01:11:18;89.15;;;41.15;;
33830;SDS011;20137;48.834;8.732;2023-02-24T01:14:08;82.47;;;39.83;;
33830;SDS011;20137;48.834;8.732;2023-02-24T01:16:37;84.03;;;38.97;;
33830;SDS011;20137;48.834;8.732;2023-02-24T01:19:05;97.05;;;42.55;;
33830;SDS011;20137;48.834;8.732;2023-02-24T01:21:32;90.45;;;42.40;;
33830;SDS011;20137;48.834;8.732;2023-02-24T01:23:58;130.90;;;44.15;;
33830;SDS011;20137;48.834;8.732;2023-02-24T01:26:24;90.97;;;43.88;;
33830;SDS011;20137;48.834;8.732;2023-02-24T01:28:51;104.35;;;43.78;;
33830;SDS011;20137;48.834;8.732;2023-02-24T01:31:18;89.05;;;42.20;;
33830;SDS011;20137;48.834;8.732;2023-02-24T01:33:47;161.73;;;43.17;;
33830;SDS011;20137;48.834;8.732;2023-02-24T01:38:44;248.00;;;45.60;;
33830;SDS011;20137;48.834;8.732;2023-02-24T01:41:11;84.55;;;41.60;;
33830;SDS011;20137;48.834;8.732;2023-02-24T01:46:38;118.78;;;42.97;;
33830;SDS011;20137;48.834;8.732;2023-02-24T01:51:41;257.95;;;46.10;;
33830;SDS011;20137;48.834;8.732;2023-02-24T01:54:16;231.43;;;45.58;;
33830;SDS011;20137;48.834;8.732;2023-02-24T01:56:48;205.88;;;44.53;;
33830;SDS011;20137;48.834;8.732;2023-02-24T01:59:15;87.53;;;41.08;;
33830;SDS011;20137;48.834;8.732;2023-02-24T02:01:44;84.90;;;43.05;;
33830;SDS011;20137;48.834;8.732;2023-02-24T02:04:17;101.63;;;42.47;;
33830;SDS011;20137;48.834;8.732;2023-02-24T02:06:55;349.80;;;50.30;;
33830;SDS011;20137;48.834;8.732;2023-02-24T02:09:22;137.45;;;42.00;;
33830;SDS011;20137;48.834;8.732;2023-02-24T02:11:49;153.25;;;45.58;;
33830;SDS011;20137;48.834;8.732;2023-02-24T02:14:15;169.48;;;45.15;;
33830;SDS011;20137;48.834;8.732;2023-02-24T02:21:53;97.63;;;41.80;;
33830;SDS011;20137;48.834;8.732;2023-02-24T02:35:21;187.18;;;45.08;;
33830;SDS011;20137;48.834;8.732;2023-02-24T02:38:14;207.20;;;44.78;;
33830;SDS011;20137;48.834;8.732;2023-02-24T02:43:49;69.22;;;37.47;;
33830;SDS011;20137;48.834;8.732;2023-02-24T02:46:25;167.18;;;44.88;;
33830;SDS011;20137;48.834;8.732;2023-02-24T02:49:42;402.20;;;52.63;;
33830;SDS011;20137;48.834;8.732;2023-02-24T02:52:12;181.73;;;43.55;;
33830;SDS011;20137;48.834;8.732;2023-02-24T02:54:49;128.93;;;46.72;;
33830;SDS011;20137;48.834;8.732;2023-02-24T02:57:27;533.55;;;56.40;;
33830;SDS011;20137;48.834;8.732;2023-02-24T03:00:05;508.35;;;56.47;;
33830;SDS011;20137;48.834;8.732;2023-02-24T03:02:38;151.73;;;44.45;;
33830;SDS011;20137;48.834;8.732;2023-02-24T03:05:08;288.23;;;51.22;;
33830;SDS011;20137;48.834;8.732;2023-02-24T03:07:39;436.98;;;53.13;;
33830;SDS011;20137;48.834;8.732;2023-02-24T03:10:10;106.28;;;45.40;;
33830;SDS011;20137;48.834;8.732;2023-02-24T03:12:45;225.95;;;48.22;;
33830;SDS011;20137;48.834;8.732;2023-02-24T03:15:14;113.85;;;41.00;;
33830;SDS011;20137;48.834;8.732;2023-02-24T03:17:42;269.60;;;48.30;;
33830;SDS011;20137;48.834;8.732;2023-02-24T03:20:27;125.68;;;43.38;;
33830;SDS011;20137;48.834;8.732;2023-02-24T03:22:58;241.25;;;45.35;;
33830;SDS011;20137;48.834;8.732;2023-02-24T03:25:37;329.33;;;51.38;;
33830;SDS011;20137;48.834;8.732;2023-02-24T03:28:18;180.02;;;44.33;;
33830;SDS011;20137;48.834;8.732;2023-02-24T03:30:58;161.25;;;44.53;;
33830;SDS011;20137;48.834;8.732;2023-02-24T03:33:35;120.15;;;45.45;;
33830;SDS011;20137;48.834;8.732;2023-02-24T03:36:08;225.95;;;47.53;;
33830;SDS011;20137;48.834;8.732;2023-02-24T03:38:38;331.80;;;50.30;;
33830;SDS011;20137;48.834;8.732;2023-02-24T03:41:06;270.05;;;43.53;;
33830;SDS011;20137;48.834;8.732;2023-02-24T03:43:43;290.48;;;48.40;;
33830;SDS011;20137;48.834;8.732;2023-02-24T03:46:12;102.22;;;44.17;;
33830;SDS011;20137;48.834;8.732;2023-02-24T03:48:41;157.60;;;45.15;;
33830;SDS011;20137;48.834;8.732;2023-02-24T03:51:14;111.78;;;43.40;;
33830;SDS011;20137;48.834;8.732;2023-02-24T03:53:49;107.38;;;42.50;;
33830;SDS011;20137;48.834;8.732;2023-02-24T03:59:20;322.95;;;53.10;;
33830;SDS011;20137;48.834;8.732;2023-02-24T04:02:10;197.73;;;46.47;;
33830;SDS011;20137;48.834;8.732;2023-02-24T04:07:11;170.93;;;44.45;;
33830;SDS011;20137;48.834;8.732;2023-02-24T04:12:25;799.55;;;66.45;;
33830;SDS011;20137;48.834;8.732;2023-02-24T04:14:57;189.15;;;45.45;;
33830;SDS011;20137;48.834;8.732;2023-02-24T04:17:51;136.88;;;44.63;;
33830;SDS011;20137;48.834;8.732;2023-02-24T04:20:23;126.30;;;42.55;;
33830;SDS011;20137;48.834;8.732;2023-02-24T04:23:07;315.20;;;52.80;;
33830;SDS011;20137;48.834;8.732;2023-02-24T04:25:38;213.27;;;43.45;;
33830;SDS011;20137;48.834;8.732;2023-02-24T04:28:07;487.20;;;54.75;;
33830;SDS011;20137;48.834;8.732;2023-02-24T04:30:34;356.42;;;55.45;;
33830;SDS011;20137;48.834;8.732;2023-02-24T04:33:03;216.32;;;50.50;;
33830;SDS011;20137;48.834;8.732;2023-02-24T04:35:29;189.70;;;48.05;;
33830;SDS011;20137;48.834;8.732;2023-02-24T04:37:54;168.00;;;48.58;;
33830;SDS011;20137;48.834;8.732;2023-02-24T04:40:21;386.92;;;54.15;;
33830;SDS011;20137;48.834;8.732;2023-02-24T04:42:50;202.02;;;50.22;;
33830;SDS011;20137;48.834;8.732;2023-02-24T04:45:18;200.50;;;51.50;;
33830;SDS011;20137;48.834;8.732;2023-02-24T04:47:47;136.27;;;47.70;;
33830;SDS011;20137;48.834;8.732;2023-02-24T04:50:16;149.45;;;48.00;;
33830;SDS011;20137;48.834;8.732;2023-02-24T04:52:53;133.38;;;47.85;;
33830;SDS011;20137;48.834;8.732;2023-02-24T04:55:21;143.77;;;48.88;;
33830;SDS011;20137;48.834;8.732;2023-02-24T04:57:50;146.82;;;49.70;;
33830;SDS011;20137;48.834;8.732;2023-02-24T05:00:17;135.65;;;47.97;;
33830;SDS011;20137;48.834;8.732;2023-02-24T05:02:46;129.90;;;45.15;;
33830;SDS011;20137;48.834;8.732;2023-02-24T05:05:16;134.98;;;47.83;;
33830;SDS011;20137;48.834;8.732;2023-02-24T05:07:49;131.35;;;45.40;;
33830;SDS011;20137;48.834;8.732;2023-02-24T05:10:17;141.73;;;46.60;;
33830;SDS011;20137;48.834;8.732;2023-02-24T05:12:43;142.02;;;45.00;;
33830;SDS011;20137;48.834;8.732;2023-02-24T05:15:09;134.85;;;48.08;;
33830;SDS011;20137;48.834;8.732;2023-02-24T05:17:36;140.75;;;47.20;;
33830;SDS011;20137;48.834;8.732;2023-02-24T05:20:03;143.65;;;46.78;;
33830;SDS011;20137;48.834;8.732;2023-02-24T05:22:48;160.80;;;47.75;;
33830;SDS011;20137;48.834;8.732;2023-02-24T05:25:17;139.30;;;44.35;;
33830;SDS011;20137;48.834;8.732;2023-02-24T05:27:44;142.35;;;45.88;;
33830;SDS011;20137;48.834;8.732;2023-02-24T05:30:10;143.32;;;45.63;;
33830;SDS011;20137;48.834;8.732;2023-02-24T05:32:36;140.68;;;46.25;;
33830;SDS011;20137;48.834;8.732;2023-02-24T05:35:02;133.35;;;45.70;;
33830;SDS011;20137;48.834;8.732;2023-02-24T05:37:28;133.93;;;42.70;;
33830;SDS011;20137;48.834;8.732;2023-02-24T05:39:57;169.35;;;45.65;;
33830;SDS011;20137;48.834;8.732;2023-02-24T05:42:25;146.23;;;43.33;;
33830;SDS011;20137;48.834;8.732;2023-02-24T05:44:51;134.93;;;42.97;;
33830;SDS011;20137;48.834;8.732;2023-02-24T05:47:18;144.65;;;42.42;;
33830;SDS011;20137;48.834;8.732;2023-02-24T05:49:45;136.13;;;42.20;;
33830;SDS011;20137;48.834;8.732;2023-02-24T05:52:12;132.70;;;42.63;;
33830;SDS011;20137;48.834;8.732;2023-02-24T05:54:41;120.40;;;40.00;;
33830;SDS011;20137;48.834;8.732;2023-02-24T05:57:13;138.48;;;42.88;;
33830;SDS011;20137;48.834;8.732;2023-02-24T05:59:49;116.60;;;40.33;;
33830;SDS011;20137;48.834;8.732;2023-02-24T06:02:16;125.82;;;42.38;;
33830;SDS011;20137;48.834;8.732;2023-02-24T06:07:19;131.82;;;44.22;;
33830;SDS011;20137;48.834;8.732;2023-02-24T06:09:47;130.95;;;44.35;;
33830;SDS011;20137;48.834;8.732;2023-02-24T06:12:14;148.85;;;46.67;;
33830;SDS011;20137;48.834;8.732;2023-02-24T06:14:41;128.70;;;42.60;;
33830;SDS011;20137;48.834;8.732;2023-02-24T06:17:08;139.63;;;43.85;;
33830;SDS011;20137;48.834;8.732;2023-02-24T06:19:34;163.80;;;44.13;;
33830;SDS011;20137;48.834;8.732;2023-02-24T06:22:00;158.32;;;45.55;;
33830;SDS011;20137;48.834;8.732;2023-02-24T06:24:30;136.80;;;46.72;;
33830;SDS011;20137;48.834;8.732;2023-02-24T06:26:57;133.27;;;43.58;;
33830;SDS011;20137;48.834;8.732;2023-02-24T06:29:33;145.60;;;44.65;;
33830;SDS011;20137;48.834;8.732;2023-02-24T06:32:01;134.05;;;43.53;;
33830;SDS011;20137;48.834;8.732;2023-02-24T06:34:36;150.40;;;44.65;;
33830;SDS011;20137;48.834;8.732;2023-02-24T06:37:03;132.43;;;42.83;;
33830;SDS011;20137;48.834;8.732;2023-02-24T06:39:31;162.65;;;46.72;;
33830;SDS011;20137;48.834;8.732;2023-02-24T06:41:58;221.10;;;46.53;;
33830;SDS011;20137;48.834;8.732;2023-02-24T06:44:28;247.82;;;51.25;;
33830;SDS011;20137;48.834;8.732;2023-02-24T06:46:54;154.88;;;47.75;;
33830;SDS011;20137;48.834;8.732;2023-02-24T06:49:22;203.02;;;46.58;;
33830;SDS011;20137;48.834;8.732;2023-02-24T06:51:48;193.60;;;46.08;;
33830;SDS011;20137;48.834;8.732;2023-02-24T06:54:14;484.90;;;52.83;;
33830;SDS011;20137;48.834;8.732;2023-02-24T06:56:40;225.63;;;46.20;;
33830;SDS011;20137;48.834;8.732;2023-02-24T06:59:06;579.30;;;57.30;;
33830;SDS011;20137;48.834;8.732;2023-02-24T07:01:36;552.83;;;59.53;;
33830;SDS011;20137;48.834;8.732;2023-02-24T07:04:09;246.75;;;48.38;;
33830;SDS011;20137;48.834;8.732;2023-02-24T07:06:36;366.52;;;50.30;;
33830;SDS011;20137;48.834;8.732;2023-02-24T07:09:11;135.25;;;42.92;;
33830;SDS011;20137;48.834;8.732;2023-02-24T07:11:39;190.88;;;43.90;;
33830;SDS011;20137;48.834;8.732;2023-02-24T07:14:07;157.50;;;42.75;;
33830;SDS011;20137;48.834;8.732;2023-02-24T07:16:35;383.65;;;50.67;;
33830;SDS011;20137;48.834;8.732;2023-02-24T07:19:04;142.52;;;44.33;;
33830;SDS011;20137;48.834;8.732;2023-02-24T07:21:35;145.45;;;44.40;;
33830;SDS011;20137;48.834;8.732;2023-02-24T07:24:12;158.45;;;43.25;;
33830;SDS011;20137;48.834;8.732;2023-02-24T07:26:40;147.95;;;41.50;;
33830;SDS011;20137;48.834;8.732;2023-02-24T07:29:08;112.97;;;40.33;;
33830;SDS011;20137;48.834;8.732;2023-02-24T07:31:35;109.57;;;37.88;;
33830;SDS011;20137;48.834;8.732;2023-02-24T07:34:02;92.93;;;35.35;;
33830;SDS011;20137;48.834;8.732;2023-02-24T07:36:27;75.03;;;30.95;;
33830;SDS011;20137;48.834;8.732;2023-02-24T07:39:03;82.80;;;32.08;;
33830;SDS011;20137;48.834;8.732;2023-02-24T07:41:32;64.40;;;26.95;;
33830;SDS011;20137;48.834;8.732;2023-02-24T07:43:58;69.45;;;29.13;;
33830;SDS011;20137;48.834;8.732;2023-02-24T07:46:27;61.97;;;28.02;;
33830;SDS011;20137;48.834;8.732;2023-02-24T07:48:54;75.28;;;29.30;;
33830;SDS011;20137;48.834;8.732;2023-02-24T07:51:21;60.45;;;25.67;;
33830;SDS011;20137;48.834;8.732;2023-02-24T07:53:52;70.10;;;26.85;;
33830;SDS011;20137;48.834;8.732;2023-02-24T07:56:21;66.78;;;24.10;;
33830;SDS011;20137;48.834;8.732;2023-02-24T07:58:51;63.67;;;24.95;;
33830;SDS011;20137;48.834;8.732;2023-02-24T08:01:24;66.43;;;24.70;;
33830;SDS011;20137;48.834;8.732;2023-02-24T08:03:53;165.43;;;27.05;;
33830;SDS011;20137;48.834;8.732;2023-02-24T08:06:25;62.88;;;23.92;;
33830;SDS011;20137;48.834;8.732;2023-02-24T08:09:03;59.75;;;23.58;;
33830;SDS011;20137;48.834;8.732;2023-02-24T08:11:53;138.02;;;26.05;;
33830;SDS011;20137;48.834;8.732;2023-02-24T08:14:24;76.82;;;25.52;;
33830;SDS011;20137;48.834;8.732;2023-02-24T08:16:54;59.63;;;23.05;;
33830;SDS011;20137;48.834;8.732;2023-02-24T08:19:24;65.50;;;24.05;;
33830;SDS011;20137;48.834;8.732;2023-02-24T08:21:56;75.10;;;25.10;;
33830;SDS011;20137;48.834;8.732;2023-02-24T08:24:35;55.78;;;23.27;;
33830;SDS011;20137;48.834;8.732;2023-02-24T08:27:00;58.40;;;23.65;;
33830;SDS011;20137;48.834;8.732;2023-02-24T08:29:36;49.28;;;20.83;;
33830;SDS011;20137;48.834;8.732;2023-02-24T08:32:22;48.65;;;21.17;;
33830;SDS011;20137;48.834;8.732;2023-02-24T08:35:17;48.78;;;20.98;;
33830;SDS011;20137;48.834;8.732;2023-02-24T08:37:45;49.75;;;21.52;;
33830;SDS011;20137;48.834;8.732;2023-02-24T08:40:16;47.03;;;20.58;;
33830;SDS011;20137;48.834;8.732;2023-02-24T08:45:40;52.72;;;21.70;;
33830;SDS011;20137;48.834;8.732;2023-02-24T08:48:32;50.90;;;20.33;;
33830;SDS011;20137;48.834;8.732;2023-02-24T08:53:36;41.92;;;19.38;;
33830;SDS011;20137;48.834;8.732;2023-02-24T08:56:04;46.10;;;20.17;;
33830;SDS011;20137;48.834;8.732;2023-02-24T08:58:44;46.70;;;19.60;;
33830;SDS011;20137;48.834;8.732;2023-02-24T09:01:17;43.13;;;18.92;;
33830;SDS011;20137;48.834;8.732;2023-02-24T09:03:48;50.08;;;20.30;;
33830;SDS011;20137;48.834;8.732;2023-02-24T09:06:17;44.42;;;20.13;;
33830;SDS011;20137;48.834;8.732;2023-02-24T09:08:49;49.08;;;19.60;;
33830;SDS011;20137;48.834;8.732;2023-02-24T09:11:38;49.00;;;19.35;;
33830;SDS011;20137;48.834;8.732;2023-02-24T09:14:08;45.15;;;20.38;;
33830;SDS011;20137;48.834;8.732;2023-02-24T09:16:45;46.60;;;19.70;;
33830;SDS011;20137;48.834;8.732;2023-02-24T09:19:33;51.22;;;19.63;;
33830;SDS011;20137;48.834;8.732;2023-02-24T09:22:10;50.28;;;20.70;;
33830;SDS011;20137;48.834;8.732;2023-02-24T09:24:55;48.70;;;21.55;;
33830;SDS011;20137;48.834;8.732;2023-02-24T09:27:42;47.10;;;19.15;;
33830;SDS011;20137;48.834;8.732;2023-02-24T09:30:12;47.05;;;18.98;;
33830;SDS011;20137;48.834;8.732;2023-02-24T09:32:57;49.37;;;19.57;;
33830;SDS011;20137;48.834;8.732;2023-02-24T09:35:26;47.03;;;18.13;;
33830;SDS011;20137;48.834;8.732;2023-02-24T09:37:58;47.95;;;21.85;;
33830;SDS011;20137;48.834;8.732;2023-02-24T09:40:30;48.28;;;21.90;;
33830;SDS011;20137;48.834;8.732;2023-02-24T09:43:19;43.00;;;18.55;;
33830;SDS011;20137;48.834;8.732;2023-02-24T09:45:53;54.05;;;21.38;;
33830;SDS011;20137;48.834;8.732;2023-02-24T09:48:39;61.80;;;22.58;;
33830;SDS011;20137;48.834;8.732;2023-02-24T09:51:13;68.93;;;25.40;;
33830;SDS011;20137;48.834;8.732;2023-02-24T09:53:47;67.22;;;28.20;;
33830;SDS011;20137;48.834;8.732;2023-02-24T09:56:28;75.80;;;29.63;;
33830;SDS011;20137;48.834;8.732;2023-02-24T10:07:13;95.75;;;33.95;;
33830;SDS011;20137;48.834;8.732;2023-02-24T10:09:52;98.55;;;32.83;;
33830;SDS011;20137;48.834;8.732;2023-02-24T10:12:43;96.30;;;33.72;;
33830;SDS011;20137;48.834;8.732;2023-02-24T10:15:33;92.45;;;32.83;;
33830;SDS011;20137;48.834;8.732;2023-02-24T10:21:36;86.45;;;32.70;;
33830;SDS011;20137;48.834;8.732;2023-02-24T10:23:57;90.07;;;31.05;;
33830;SDS011;20137;48.834;8.732;2023-02-24T10:34:47;94.07;;;32.33;;
33830;SDS011;20137;48.834;8.732;2023-02-24T10:37:22;87.07;;;31.23;;
33830;SDS011;20137;48.834;8.732;2023-02-24T10:39:54;89.70;;;32.15;;
33830;SDS011;20137;48.834;8.732;2023-02-24T10:42:26;95.50;;;33.97;;
33830;SDS011;20137;48.834;8.732;2023-02-24T10:45:06;93.63;;;34.10;;
33830;SDS011;20137;48.834;8.732;2023-02-24T10:47:37;96.68;;;34.53;;
33830;SDS011;20137;48.834;8.732;2023-02-24T10:50:18;102.35;;;36.70;;
33830;SDS011;20137;48.834;8.732;2023-02-24T10:52:53;99.60;;;33.90;;
33830;SDS011;20137;48.834;8.732;2023-02-24T10:58:03;105.88;;;35.17;;
33830;SDS011;20137;48.834;8.732;2023-02-24T11:00:41;101.00;;;33.92;;
33830;SDS011;20137;48.834;8.732;2023-02-24T11:03:45;103.47;;;36.83;;
33830;SDS011;20137;48.834;8.732;2023-02-24T11:06:25;115.70;;;37.42;;
33830;SDS011;20137;48.834;8.732;2023-02-24T11:09:16;127.13;;;40.40;;
33830;SDS011;20137;48.834;8.732;2023-02-24T11:12:04;117.63;;;38.47;;
33830;SDS011;20137;48.834;8.732;2023-02-24T11:14:56;108.05;;;36.78;;
33830;SDS011;20137;48.834;8.732;2023-02-24T11:17:48;122.18;;;37.38;;
33830;SDS011;20137;48.834;8.732;2023-02-24T11:22:55;102.18;;;34.97;;
33830;SDS011;20137;48.834;8.732;2023-02-24T11:25:23;102.38;;;33.90;;
33830;SDS011;20137;48.834;8.732;2023-02-24T11:27:50;99.45;;;34.38;;
33830;SDS011;20137;48.834;8.732;2023-02-24T11:33:12;100.53;;;36.35;;
33830;SDS011;20137;48.834;8.732;2023-02-24T11:40:57;80.68;;;29.77;;
33830;SDS011;20137;48.834;8.732;2023-02-24T11:43:34;77.47;;;29.05;;
33830;SDS011;20137;48.834;8.732;2023-02-24T11:46:16;71.65;;;26.65;;
33830;SDS011;20137;48.834;8.732;2023-02-24T11:48:53;60.35;;;21.33;;
33830;SDS011;20137;48.834;8.732;2023-02-24T11:51:26;48.65;;;20.70;;
33830;SDS011;20137;48.834;8.732;2023-02-24T11:56:27;55.70;;;20.88;;
33830;SDS011;20137;48.834;8.732;2023-02-24T12:04:25;55.45;;;20.52;;
33830;SDS011;20137;48.834;8.732;2023-02-24T12:09:47;49.53;;;20.63;;
33830;SDS011;20137;48.834;8.732;2023-02-24T12:12:52;48.50;;;19.40;;
33830;SDS011;20137;48.834;8.732;2023-02-24T12:15:32;48.33;;;16.05;;
33830;SDS011;20137;48.834;8.732;2023-02-24T12:18:12;51.95;;;20.20;;
33830;SDS011;20137;48.834;8.732;2023-02-24T12:21:01;53.17;;;20.23;;
33830;SDS011;20137;48.834;8.732;2023-02-24T12:23:45;61.03;;;24.85;;
33830;SDS011;20137;48.834;8.732;2023-02-24T12:26:25;64.53;;;23.75;;
33830;SDS011;20137;48.834;8.732;2023-02-24T12:51:07;58.17;;;21.92;;
33830;SDS011;20137;48.834;8.732;2023-02-24T12:53:45;52.28;;;19.00;;
33830;SDS011;20137;48.834;8.732;2023-02-24T12:59:20;53.20;;;19.83;;
33830;SDS011;20137;48.834;8.732;2023-02-24T13:01:57;51.28;;;20.27;;
33830;SDS011;20137;48.834;8.732;2023-02-24T13:07:55;44.97;;;17.20;;
33830;SDS011;20137;48.834;8.732;2023-02-24T13:10:48;35.03;;;15.48;;
33830;SDS011;20137;48.834;8.732;2023-02-24T13:13:26;33.28;;;14.07;;
33830;SDS011;20137;48.834;8.732;2023-02-24T13:16:04;39.95;;;15.45;;
33830;SDS011;20137;48.834;8.732;2023-02-24T13:18:31;31.75;;;12.48;;
33830;SDS011;20137;48.834;8.732;2023-02-24T13:21:00;29.30;;;12.80;;
33830;SDS011;20137;48.834;8.732;2023-02-24T13:23:28;40.40;;;12.98;;
33830;SDS011;20137;48.834;8.732;2023-02-24T13:25:55;36.75;;;14.20;;
33830;SDS011;20137;48.834;8.732;2023-02-24T13:30:55;33.45;;;12.50;;
33830;SDS011;20137;48.834;8.732;2023-02-24T13:33:27;32.85;;;13.75;;
33830;SDS011;20137;48.834;8.732;2023-02-24T13:36:31;27.85;;;12.55;;
33830;SDS011;20137;48.834;8.732;2023-02-24T13:46:46;34.88;;;13.30;;
33830;SDS011;20137;48.834;8.732;2023-02-24T13:49:19;32.58;;;13.48;;
33830;SDS011;20137;48.834;8.732;2023-02-24T13:52:04;42.75;;;14.50;;
33830;SDS011;20137;48.834;8.732;2023-02-24T13:54:54;35.08;;;14.82;;
33830;SDS011;20137;48.834;8.732;2023-02-24T13:57:33;37.15;;;13.48;;
33830;SDS011;20137;48.834;8.732;2023-02-24T14:03:17;34.00;;;13.73;;
33830;SDS011;20137;48.834;8.732;2023-02-24T14:05:46;42.00;;;14.63;;
33830;SDS011;20137;48.834;8.732;2023-02-24T14:08:21;35.35;;;15.35;;
33830;SDS011;20137;48.834;8.732;2023-02-24T14:10:55;34.78;;;14.88;;
33830;SDS011;20137;48.834;8.732;2023-02-24T14:13:23;45.58;;;17.38;;
33830;SDS011;20137;48.834;8.732;2023-02-24T14:15:52;40.70;;;15.65;;
33830;SDS011;20137;48.834;8.732;2023-02-24T14:18:22;45.65;;;16.27;;
33830;SDS011;20137;48.834;8.732;2023-02-24T14:20:50;48.30;;;17.70;;
33830;SDS011;20137;48.834;8.732;2023-02-24T14:23:27;39.55;;;15.77;;
33830;SDS011;20137;48.834;8.732;2023-02-24T14:28:35;43.40;;;17.52;;
33830;SDS011;20137;48.834;8.732;2023-02-24T14:31:06;42.28;;;16.13;;
33830;SDS011;20137;48.834;8.732;2023-02-24T14:33:33;41.70;;;15.75;;
33830;SDS011;20137;48.834;8.732;2023-02-24T14:36:01;40.20;;;15.57;;
33830;SDS011;20137;48.834;8.732;2023-02-24T14:41:01;35.42;;;16.30;;
33830;SDS011;20137;48.834;8.732;2023-02-24T14:43:29;41.90;;;16.05;;
33830;SDS011;20137;48.834;8.732;2023-02-24T14:45:55;47.90;;;17.08;;
33830;SDS011;20137;48.834;8.732;2023-02-24T14:50:52;39.20;;;17.63;;
33830;SDS011;20137;48.834;8.732;2023-02-24T14:53:44;47.42;;;18.83;;
33830;SDS011;20137;48.834;8.732;2023-02-24T14:56:14;56.00;;;23.17;;
33830;SDS011;20137;48.834;8.732;2023-02-24T14:58:42;49.42;;;20.80;;
33830;SDS011;20137;48.834;8.732;2023-02-24T15:01:55;50.90;;;21.83;;
33830;SDS011;20137;48.834;8.732;2023-02-24T15:04:11;49.83;;;19.42;;
33830;SDS011;20137;48.834;8.732;2023-02-24T15:06:39;83.47;;;34.67;;
33830;SDS011;20137;48.834;8.732;2023-02-24T15:09:25;69.38;;;30.45;;
33830;SDS011;20137;48.834;8.732;2023-02-24T15:11:57;60.83;;;24.73;;
33830;SDS011;20137;48.834;8.732;2023-02-24T15:14:24;59.05;;;23.40;;
33830;SDS011;20137;48.834;8.732;2023-02-24T15:16:56;74.50;;;29.27;;
33830;SDS011;20137;48.834;8.732;2023-02-24T15:19:33;42.78;;;19.73;;
33830;SDS011;20137;48.834;8.732;2023-02-24T15:22:46;78.90;;;31.83;;
33830;SDS011;20137;48.834;8.732;2023-02-24T15:27:50;71.17;;;29.37;;
33830;SDS011;20137;48.834;8.732;2023-02-24T15:30:25;44.28;;;20.40;;
33830;SDS011;20137;48.834;8.732;2023-02-24T15:33:03;42.20;;;19.33;;
33830;SDS011;20137;48.834;8.732;2023-02-24T15:35:36;53.58;;;20.75;;
33830;SDS011;20137;48.834;8.732;2023-02-24T15:38:13;57.42;;;22.98;;
33830;SDS011;20137;48.834;8.732;2023-02-24T15:40:52;44.70;;;21.08;;
33830;SDS011;20137;48.834;8.732;2023-02-24T15:43:34;45.95;;;20.92;;
33830;SDS011;20137;48.834;8.732;2023-02-24T15:46:12;60.22;;;31.02;;
33830;SDS011;20137;48.834;8.732;2023-02-24T15:48:39;54.92;;;24.30;;
33830;SDS011;20137;48.834;8.732;2023-02-24T15:51:09;56.72;;;24.63;;
33830;SDS011;20137;48.834;8.732;2023-02-24T15:53:51;57.38;;;24.15;;
33830;SDS011;20137;48.834;8.732;2023-02-24T15:56:17;60.40;;;25.23;;
33830;SDS011;20137;48.834;8.732;2023-02-24T15:58:43;55.55;;;25.10;;
33830;SDS011;20137;48.834;8.732;2023-02-24T16:01:12;56.83;;;25.35;;
33830;SDS011;20137;48.834;8.732;2023-02-24T16:03:38;52.67;;;24.75;;
33830;SDS011;20137;48.834;8.732;2023-02-24T16:06:04;58.40;;;24.55;;
33830;SDS011;20137;48.834;8.732;2023-02-24T16:08:31;57.00;;;25.98;;
33830;SDS011;20137;48.834;8.732;2023-02-24T16:10:57;56.85;;;24.10;;
33830;SDS011;20137;48.834;8.732;2023-02-24T16:13:24;47.92;;;24.50;;
33830;SDS011;20137;48.834;8.732;2023-02-24T16:15:50;58.42;;;24.13;;
33830;SDS011;20137;48.834;8.732;2023-02-24T16:18:18;62.13;;;26.00;;
33830;SDS011;20137;48.834;8.732;2023-02-24T16:20:46;51.50;;;24.13;;
33830;SDS011;20137;48.834;8.732;2023-02-24T16:23:21;50.28;;;25.08;;
33830;SDS011;20137;48.834;8.732;2023-02-24T16:25:48;51.30;;;24.15;;
33830;SDS011;20137;48.834;8.732;2023-02-24T16:28:18;57.83;;;25.52;;
33830;SDS011;20137;48.834;8.732;2023-02-24T16:30:45;53.53;;;24.52;;
33830;SDS011;20137;48.834;8.732;2023-02-24T16:33:14;55.10;;;26.08;;
33830;SDS011;20137;48.834;8.732;2023-02-24T16:35:41;58.28;;;24.92;;
33830;SDS011;20137;48.834;8.732;2023-02-24T16:38:11;52.88;;;23.55;;
33830;SDS011;20137;48.834;8.732;2023-02-24T16:40:39;57.83;;;26.27;;
33830;SDS011;20137;48.834;8.732;2023-02-24T16:43:07;57.53;;;23.27;;
33830;SDS011;20137;48.834;8.732;2023-02-24T16:45:33;52.90;;;24.02;;
33830;SDS011;20137;48.834;8.732;2023-02-24T16:48:00;49.38;;;22.52;;
33830;SDS011;20137;48.834;8.732;2023-02-24T16:50:39;49.65;;;21.55;;
33830;SDS011;20137;48.834;8.732;2023-02-24T16:53:06;54.05;;;23.45;;
33830;SDS011;20137;48.834;8.732;2023-02-24T16:55:35;91.82;;;26.23;;
33830;SDS011;20137;48.834;8.732;2023-02-24T16:58:01;58.78;;;23.48;;
33830;SDS011;20137;48.834;8.732;2023-02-24T17:00:26;56.38;;;25.50;;
33830;SDS011;20137;48.834;8.732;2023-02-24T17:02:52;63.20;;;23.63;;
33830;SDS011;20137;48.834;8.732;2023-02-24T17:05:25;62.40;;;22.33;;
33830;SDS011;20137;48.834;8.732;2023-02-24T17:07:53;67.82;;;23.80;;
33830;SDS011;20137;48.834;8.732;2023-02-24T17:10:21;61.75;;;23.02;;
33830;SDS011;20137;48.834;8.732;2023-02-24T17:12:48;76.22;;;25.52;;